Yakima, WA

6:04 AM PDT on April 28, 2015 (GMT -0700)
Vagabond Aaf / Yakim | | Change Station
CLOSE
Current Station
Airport
Location: Vagabond Aaf / Yakim,
Elevation: 1371 ft
Nearby Weather Stations

Elev 1371 ft 46.67 °N, 120.45 °W | Updated 8 minutes ago

Clear
Clear
44 °F
Feels Like 44 °F
N
2
Wind Variable Wind from WNW

Today
High -- | Low -- °F
--% Chance of Precip.
Yesterday
High -- | Low -- °F
Precip. -- in
5:52 AM 8:07 PM
Waxing Gibbous, 73% visible
Pressure 30.03 in
Visibility 10.0 miles
Clouds Clear
Dew Point 36 °F
Humidity 73%
Rainfall 0.00 in
Snow Depth Not available.
UV 0 out of 12
Pollen 9.80 out of 12
Air Quality Not available.
Flu Activity Regional
METAR K1YT 281256Z AUTO 29002KT 10SM CLR 07/02 A3003 RMK AO2 SLPNO T00660021

More Conditions Fewer Conditions

Pressure 30.03 in
Visibility 10.0 miles
Clouds Clear
Dew Point 36 °F
Humidity 73%
Rainfall 0.00 in
Snow Depth Not available.
UV 0 out of 12
Pollen 9.80 out of 12
Air Quality Not available.
Flu Activity Regional
METAR K1YT 281256Z AUTO 29002KT 10SM CLR 07/02 A3003 RMK AO2 SLPNO T00660021

More Conditions Fewer Conditions

10-Day Weather Forecast

Almanac

Astronomy

Apr. 28, 2015 Rise Set
Actual Time
Civil Twilight
Nautical Twilight
Astronomical Twilight
Moon
Length of Visible Light
Length of Day
Tomorrow will be .
, % of the Moon is Illuminated

Today's Extremes

State Highs State Lows

Community

WunderPhotos

Upload Photos

1,817,621 photos uploaded!

WunderBlogs® & News

Nearby

Air Quality

  Air Quality AQ Index Pollutant
Not available.

Snow Depth

Station Depth Elevation

Earthquake Activity

City Distance Mag. Time & Date
Minimum magnitude displayed is 2.5.

Coastal Water Temperatures

Place Temperature

Stations

Nearby Weather Stations

Station Location Temp. Windchill Dew Point Humidity Wind Precip. Elev Updated Type